createdAt,value
2022-12-19T00:01:38.776Z,5.63
2022-12-19T00:04:09.290Z,4.13
2022-12-19T00:06:37.754Z,4.95
2022-12-19T00:09:05.530Z,4.20
2022-12-19T00:11:32.938Z,4.50
2022-12-19T00:14:00.162Z,3.75
2022-12-19T00:16:29.477Z,3.40
2022-12-19T00:18:58.702Z,4.38
2022-12-19T00:21:27.377Z,4.43
2022-12-19T00:23:54.234Z,5.50
2022-12-19T00:26:29.409Z,3.80
2022-12-19T00:28:59.312Z,3.85
2022-12-19T00:31:28.620Z,3.88
2022-12-19T00:33:56.075Z,4.38
2022-12-19T00:36:25.649Z,4.03
2022-12-19T00:38:54.270Z,4.05
2022-12-19T00:41:33.002Z,3.30
2022-12-19T00:44:05.405Z,3.53
2022-12-19T00:46:35.261Z,3.53
2022-12-19T00:49:03.161Z,3.67
2022-12-19T00:51:32.648Z,4.32
2022-12-19T00:54:00.172Z,4.43
2022-12-19T00:56:35.722Z,2.95
2022-12-19T00:59:07.004Z,4.22
2022-12-19T01:01:37.237Z,3.70
2022-12-19T01:06:53.621Z,4.57
2022-12-19T01:09:22.669Z,4.38
2022-12-19T01:12:08.579Z,3.50
2022-12-19T01:14:35.507Z,4.72
2022-12-19T01:17:02.342Z,5.20
2022-12-19T01:19:29.152Z,5.22
2022-12-19T01:21:56.038Z,3.92
2022-12-19T01:24:22.842Z,6.60
2022-12-19T01:26:50.011Z,6.45
2022-12-19T01:29:16.860Z,5.07
2022-12-19T01:31:43.812Z,5.28
2022-12-19T01:34:10.678Z,4.78
2022-12-19T01:36:40.172Z,5.70
2022-12-19T01:39:08.043Z,5.80
2022-12-19T01:41:35.365Z,6.13
2022-12-19T01:44:05.170Z,4.68
2022-12-19T01:46:48.511Z,5.53
2022-12-19T01:49:22.972Z,5.22
2022-12-19T01:51:53.899Z,6.25
2022-12-19T01:54:25.006Z,4.68
2022-12-19T01:56:55.123Z,4.53
2022-12-19T01:59:43.810Z,5.20
2022-12-19T02:02:19.675Z,4.70
2022-12-19T02:04:47.974Z,4.13
2022-12-19T02:07:17.688Z,5.30
2022-12-19T02:09:56.577Z,5.88
2022-12-19T02:12:31.258Z,3.95
2022-12-19T02:15:02.570Z,4.28
2022-12-19T02:17:39.140Z,4.05
2022-12-19T02:20:16.837Z,5.13
2022-12-19T02:23:02.515Z,6.15
2022-12-19T02:25:38.545Z,4.15
2022-12-19T02:28:30.291Z,5.80
2022-12-19T02:31:19.436Z,4.60
2022-12-19T02:33:47.931Z,4.20
2022-12-19T02:36:27.931Z,6.53
2022-12-19T02:39:22.117Z,5.05
2022-12-19T02:41:57.737Z,6.25
2022-12-19T02:44:35.938Z,6.25
2022-12-19T02:47:05.469Z,5.32
2022-12-19T02:49:36.396Z,5.32
2022-12-19T02:52:29.772Z,5.50
2022-12-19T02:55:04.297Z,5.18
2022-12-19T02:57:46.643Z,6.68
2022-12-19T03:00:19.085Z,5.90
2022-12-19T03:03:01.193Z,6.75
2022-12-19T03:05:50.508Z,5.82
2022-12-19T03:08:38.657Z,5.43
2022-12-19T03:11:09.935Z,5.75
2022-12-19T03:13:53.569Z,5.30
2022-12-19T03:16:20.650Z,5.60
2022-12-19T03:18:47.602Z,5.43
2022-12-19T03:21:44.007Z,5.03
2022-12-19T03:24:12.995Z,6.03
2022-12-19T03:26:53.188Z,5.53
2022-12-19T03:29:29.848Z,5.88
2022-12-19T03:31:59.570Z,5.78
2022-12-19T03:34:41.214Z,6.05
2022-12-19T03:37:18.007Z,6.35
2022-12-19T03:39:49.545Z,6.60
2022-12-19T03:42:37.232Z,6.20
2022-12-19T03:45:06.234Z,6.80
2022-12-19T03:47:48.579Z,7.75
2022-12-19T03:50:16.069Z,7.03
2022-12-19T03:53:19.927Z,6.85
2022-12-19T03:56:12.633Z,9.48
2022-12-19T03:58:45.509Z,8.65
2022-12-19T04:01:12.608Z,9.90
2022-12-19T04:03:39.539Z,11.27
2022-12-19T04:06:06.989Z,10.68
2022-12-19T04:08:35.643Z,9.82
2022-12-19T04:11:08.037Z,11.20
2022-12-19T04:13:53.318Z,10.80
2022-12-19T04:16:23.838Z,9.98
2022-12-19T04:21:40.385Z,9.73
2022-12-19T04:24:16.325Z,10.68
2022-12-19T04:26:47.734Z,9.23
2022-12-19T04:29:15.445Z,10.45
2022-12-19T04:31:43.487Z,9.70
2022-12-19T04:34:10.487Z,9.60
2022-12-19T04:36:37.489Z,9.50
2022-12-19T04:39:04.608Z,10.00
2022-12-19T04:41:31.691Z,11.07
2022-12-19T04:43:58.556Z,9.07
2022-12-19T04:46:25.481Z,9.38
2022-12-19T04:48:52.369Z,8.77
2022-12-19T04:51:19.287Z,10.23
2022-12-19T04:53:46.135Z,8.52
2022-12-19T04:56:12.986Z,8.93
2022-12-19T04:58:39.807Z,8.68
2022-12-19T05:01:08.457Z,9.10
2022-12-19T05:03:36.733Z,9.55
2022-12-19T05:06:08.492Z,10.30
2022-12-19T05:08:36.666Z,9.93
2022-12-19T05:11:05.014Z,11.82
2022-12-19T05:13:32.141Z,8.93
2022-12-19T05:16:07.052Z,10.50
2022-12-19T05:18:34.435Z,9.48
2022-12-19T05:21:01.451Z,10.60
2022-12-19T05:23:28.759Z,9.75
2022-12-19T05:25:59.003Z,7.63
2022-12-19T05:28:26.796Z,10.10
2022-12-19T05:31:06.311Z,9.38
2022-12-19T05:33:33.644Z,9.67
2022-12-19T05:36:00.628Z,8.80
2022-12-19T05:38:28.001Z,10.02
2022-12-19T05:40:55.064Z,11.27
2022-12-19T05:43:22.515Z,11.45
2022-12-19T05:45:49.640Z,11.43
2022-12-19T05:48:16.427Z,7.95
2022-12-19T05:50:49.215Z,8.65
2022-12-19T05:53:24.634Z,8.98
2022-12-19T05:55:53.005Z,10.77
2022-12-19T05:58:19.911Z,10.23
2022-12-19T06:00:46.818Z,12.15
2022-12-19T06:03:13.705Z,13.05
2022-12-19T06:05:40.520Z,11.80
2022-12-19T06:08:07.400Z,12.50
2022-12-19T06:10:34.331Z,13.88
2022-12-19T06:13:01.290Z,12.82
2022-12-19T06:15:28.718Z,15.82
2022-12-19T06:17:55.592Z,12.07
2022-12-19T06:20:22.944Z,13.10
2022-12-19T06:22:49.734Z,11.07
2022-12-19T06:25:16.589Z,10.63
2022-12-19T06:27:43.409Z,10.43
2022-12-19T06:30:10.876Z,12.07
2022-12-19T06:32:38.261Z,9.07
2022-12-19T06:35:06.026Z,13.02
2022-12-19T06:37:32.960Z,13.70
2022-12-19T06:39:59.770Z,12.50
2022-12-19T06:42:26.633Z,10.98
2022-12-19T06:44:55.924Z,11.88
2022-12-19T06:47:24.771Z,12.07
2022-12-19T06:49:51.739Z,13.27
2022-12-19T06:52:18.777Z,10.88
2022-12-19T06:54:45.790Z,12.23
2022-12-19T06:57:12.693Z,10.88
2022-12-19T06:59:39.510Z,10.43
2022-12-19T07:02:28.605Z,10.98
2022-12-19T07:05:03.203Z,10.80
2022-12-19T07:07:30.648Z,11.95
2022-12-19T07:09:57.489Z,12.68
2022-12-19T07:12:24.318Z,13.60
2022-12-19T07:14:53.634Z,12.60
2022-12-19T07:17:22.599Z,11.88
2022-12-19T07:19:49.409Z,11.20
2022-12-19T07:22:16.477Z,11.48
2022-12-19T07:24:43.648Z,11.15
2022-12-19T07:27:10.517Z,12.43
2022-12-19T07:29:37.335Z,11.90
2022-12-19T07:32:04.506Z,13.18
2022-12-19T07:34:31.387Z,11.90
2022-12-19T07:36:58.228Z,12.48
2022-12-19T07:39:25.382Z,13.07
2022-12-19T07:41:52.184Z,13.85
2022-12-19T07:44:29.938Z,13.68
2022-12-19T07:46:57.360Z,13.27
2022-12-19T07:49:24.317Z,13.70
2022-12-19T07:51:51.156Z,12.25
2022-12-19T07:54:17.999Z,14.73
2022-12-19T07:56:44.836Z,13.48
2022-12-19T07:59:13.096Z,11.98
2022-12-19T08:01:40.006Z,12.60
2022-12-19T08:04:06.983Z,13.50
2022-12-19T08:06:39.118Z,12.95
2022-12-19T08:09:07.765Z,12.38
2022-12-19T08:11:34.841Z,12.68
2022-12-19T08:14:01.667Z,15.27
2022-12-19T08:16:28.581Z,13.85
2022-12-19T08:18:55.753Z,14.73
2022-12-19T08:21:23.631Z,13.07
2022-12-19T08:23:51.988Z,14.85
2022-12-19T08:26:25.372Z,13.35
2022-12-19T08:28:53.648Z,13.38
2022-12-19T08:31:21.455Z,14.35
2022-12-19T08:33:48.543Z,14.52
2022-12-19T08:36:19.003Z,16.13
2022-12-19T08:41:13.069Z,12.50
2022-12-19T08:43:40.121Z,15.85
2022-12-19T08:46:08.069Z,15.95
2022-12-19T08:48:36.377Z,14.43
2022-12-19T08:51:08.633Z,15.90
2022-12-19T08:53:38.222Z,16.13
2022-12-19T08:56:08.227Z,16.08
2022-12-19T08:58:35.117Z,17.10
2022-12-19T09:01:06.082Z,15.63
2022-12-19T09:03:43.478Z,16.55
2022-12-19T09:06:20.429Z,17.02
2022-12-19T09:08:47.539Z,18.27
2022-12-19T09:11:16.684Z,16.38
2022-12-19T09:13:44.711Z,17.13
2022-12-19T09:16:17.171Z,16.83
2022-12-19T09:18:49.812Z,15.43
2022-12-19T09:21:17.991Z,15.23
2022-12-19T09:23:49.729Z,18.00
2022-12-19T09:26:16.786Z,18.42
2022-12-19T09:28:43.598Z,16.35
2022-12-19T09:31:16.733Z,16.10
2022-12-19T09:33:44.092Z,16.38
2022-12-19T09:36:24.902Z,15.80
2022-12-19T09:38:56.373Z,16.75
2022-12-19T09:41:23.127Z,17.15
2022-12-19T09:44:18.990Z,14.82
2022-12-19T09:46:57.514Z,16.33
2022-12-19T09:49:41.960Z,16.70
2022-12-19T09:52:24.004Z,14.90
2022-12-19T09:55:01.480Z,16.77
2022-12-19T09:57:57.246Z,15.60
2022-12-19T10:00:39.430Z,14.15
2022-12-19T10:03:39.726Z,15.20
2022-12-19T10:07:11.197Z,16.73
2022-12-19T10:10:55.566Z,12.88
2022-12-19T10:12:43.777Z,14.40
2022-12-19T10:15:23.401Z,13.10
2022-12-19T10:18:10.246Z,14.50
2022-12-19T10:21:10.963Z,14.13
2022-12-19T10:24:18.874Z,11.85
2022-12-19T10:27:03.630Z,14.52
2022-12-19T10:29:41.937Z,12.52
2022-12-19T10:32:17.143Z,12.45
2022-12-19T10:34:45.954Z,14.18
2022-12-19T10:37:26.521Z,13.10
2022-12-19T10:40:28.411Z,13.13
2022-12-19T10:42:58.483Z,14.45
2022-12-19T10:45:37.802Z,13.70
2022-12-19T10:48:09.895Z,11.55
2022-12-19T10:50:38.017Z,13.45
2022-12-19T10:53:04.758Z,11.00
2022-12-19T10:55:50.918Z,12.88
2022-12-19T10:58:20.352Z,13.32
2022-12-19T11:01:10.005Z,14.32
2022-12-19T11:03:38.785Z,12.57
2022-12-19T11:06:07.012Z,12.00
2022-12-19T11:08:36.537Z,11.18
2022-12-19T11:12:51.139Z,13.60
2022-12-19T11:17:10.016Z,12.75
2022-12-19T11:25:21.773Z,13.80
2022-12-19T11:29:25.475Z,14.80
2022-12-19T11:30:09.926Z,11.95
2022-12-19T11:30:42.998Z,12.98
2022-12-19T11:30:48.176Z,11.85
2022-12-19T11:34:23.571Z,12.85
2022-12-19T11:36:59.481Z,13.10
2022-12-19T11:39:36.860Z,14.50
2022-12-19T11:42:34.105Z,12.38
2022-12-19T11:45:25.202Z,13.77
2022-12-19T11:47:57.365Z,12.13
2022-12-19T11:50:31.008Z,12.40
2022-12-19T11:53:19.388Z,12.18
2022-12-19T11:56:15.864Z,12.90
2022-12-19T11:58:53.016Z,12.70
2022-12-19T12:01:34.933Z,14.00
2022-12-19T12:04:05.025Z,12.40
2022-12-19T12:06:37.948Z,11.75
2022-12-19T12:11:33.618Z,13.55
2022-12-19T12:18:07.460Z,16.25
2022-12-19T12:26:30.579Z,13.23
2022-12-19T12:31:11.599Z,13.68
2022-12-19T12:31:28.339Z,13.70
2022-12-19T12:31:40.361Z,12.77
2022-12-19T12:32:03.193Z,12.52
2022-12-19T12:35:46.562Z,12.38
2022-12-19T12:35:52.121Z,12.38
2022-12-19T12:38:22.601Z,13.63
2022-12-19T12:40:57.056Z,13.88
2022-12-19T12:43:35.987Z,11.45
2022-12-19T12:46:05.338Z,12.57
2022-12-19T12:48:42.982Z,14.70
2022-12-19T12:51:10.881Z,12.88
2022-12-19T12:53:42.456Z,12.55
2022-12-19T12:56:12.174Z,13.93
2022-12-19T12:58:54.356Z,12.77
2022-12-19T13:01:27.200Z,15.43
2022-12-19T13:03:58.895Z,13.23
2022-12-19T13:06:50.575Z,14.10
2022-12-19T13:09:29.668Z,12.93
2022-12-19T13:12:39.019Z,14.60
2022-12-19T13:15:27.689Z,13.70
2022-12-19T13:17:54.521Z,15.10
2022-12-19T13:20:24.061Z,15.00
2022-12-19T13:22:58.666Z,12.80
2022-12-19T13:25:34.727Z,13.05
2022-12-19T13:28:01.558Z,14.63
2022-12-19T13:30:30.078Z,12.75
2022-12-19T13:32:57.851Z,13.10
2022-12-19T13:35:30.491Z,11.57
2022-12-19T13:39:54.508Z,12.88
2022-12-19T13:41:48.251Z,12.07
2022-12-19T13:44:20.728Z,12.00
2022-12-19T13:46:48.094Z,11.50
2022-12-19T13:49:30.495Z,13.32
2022-12-19T13:52:00.923Z,12.20
2022-12-19T13:54:45.811Z,12.90
2022-12-19T13:57:28.167Z,11.95
2022-12-19T14:00:01.379Z,13.77
2022-12-19T14:02:51.347Z,13.77
2022-12-19T14:05:34.130Z,11.95
2022-12-19T14:08:21.556Z,11.65
2022-12-19T14:11:32.480Z,13.15
2022-12-19T14:14:16.067Z,14.15
2022-12-19T14:16:46.073Z,13.85
2022-12-19T14:19:44.174Z,11.52
2022-12-19T14:22:24.694Z,14.13
2022-12-19T14:25:07.446Z,12.35
2022-12-19T14:28:25.368Z,12.93
2022-12-19T14:30:54.843Z,13.73
2022-12-19T14:33:43.422Z,11.95
2022-12-19T14:36:26.116Z,12.20
2022-12-19T14:39:25.379Z,12.25
2022-12-19T14:42:03.394Z,12.52
2022-12-19T14:52:36.193Z,13.00
2022-12-19T14:52:51.708Z,12.18
2022-12-19T14:54:05.765Z,13.55
2022-12-19T14:54:50.326Z,12.73
2022-12-19T14:59:02.007Z,14.50
2022-12-19T15:01:34.590Z,13.07
2022-12-19T15:04:48.236Z,13.75
2022-12-19T15:07:08.732Z,12.75
2022-12-19T15:11:04.724Z,12.05
2022-12-19T15:14:54.465Z,11.88
2022-12-19T15:16:28.652Z,12.88
2022-12-19T15:18:58.642Z,12.27
2022-12-19T15:21:28.026Z,10.20
2022-12-19T15:23:55.163Z,14.57
2022-12-19T15:26:34.596Z,12.82
2022-12-19T15:29:02.984Z,13.65
2022-12-19T15:31:40.249Z,12.45
2022-12-19T15:34:48.686Z,14.88
2022-12-19T15:37:14.303Z,14.65
2022-12-19T15:39:42.980Z,13.23
2022-12-19T15:42:36.093Z,13.15
2022-12-19T15:45:04.879Z,16.30
2022-12-19T15:47:36.960Z,15.00
2022-12-19T15:50:16.042Z,14.95
2022-12-19T15:52:43.162Z,13.85
2022-12-19T15:55:18.087Z,14.18
2022-12-19T15:57:49.067Z,14.82
2022-12-19T16:00:24.909Z,14.45
2022-12-19T16:03:23.633Z,13.18
2022-12-19T16:05:41.386Z,13.25
2022-12-19T16:08:18.417Z,17.10
2022-12-19T16:10:48.336Z,13.70
2022-12-19T16:13:22.271Z,14.90
2022-12-19T16:16:39.728Z,14.95
2022-12-19T17:23:37.079Z,16.63
2022-12-19T17:26:04.112Z,20.38
2022-12-19T17:28:30.956Z,19.52
2022-12-19T17:31:02.604Z,20.45
2022-12-19T17:33:35.218Z,18.38
2022-12-19T17:36:02.775Z,18.27
2022-12-19T17:38:29.811Z,21.08
2022-12-19T17:40:57.307Z,19.20
2022-12-19T17:43:24.306Z,19.75
2022-12-19T17:45:52.408Z,20.48
2022-12-19T17:48:31.395Z,20.80
2022-12-19T17:50:59.183Z,20.80
2022-12-19T17:53:26.671Z,23.15
2022-12-19T17:55:53.545Z,22.33
2022-12-19T17:58:21.638Z,19.90
2022-12-19T18:00:49.907Z,20.88
2022-12-19T18:03:25.536Z,20.90
2022-12-19T18:05:54.933Z,21.52
2022-12-19T18:08:28.552Z,22.65
2022-12-19T18:10:57.109Z,20.00
2022-12-19T18:13:26.318Z,22.10
2022-12-19T18:15:57.237Z,22.08
2022-12-19T18:18:34.383Z,20.77
2022-12-19T18:21:02.527Z,22.42
2022-12-19T18:23:32.773Z,21.10
2022-12-19T18:26:02.456Z,22.48
2022-12-19T18:28:30.119Z,20.70
2022-12-19T18:31:20.980Z,24.58
2022-12-19T18:33:48.506Z,22.13
2022-12-19T18:36:24.832Z,24.35
2022-12-19T18:38:52.382Z,22.60
2022-12-19T18:41:20.098Z,22.52
2022-12-19T18:43:47.481Z,23.10
2022-12-19T18:46:23.284Z,22.70
2022-12-19T18:48:50.338Z,24.33
2022-12-19T18:51:20.950Z,24.83
2022-12-19T18:53:49.001Z,25.30
2022-12-19T18:56:16.020Z,25.33
2022-12-19T18:58:42.876Z,24.98
2022-12-19T19:01:18.937Z,23.65
2022-12-19T19:03:55.079Z,26.13
2022-12-19T19:06:37.237Z,25.00
2022-12-19T19:09:04.612Z,26.60
2022-12-19T19:11:49.767Z,27.35
2022-12-19T19:14:16.666Z,25.83
2022-12-19T19:16:43.803Z,27.33
2022-12-19T19:19:14.452Z,27.55
2022-12-19T19:21:42.669Z,28.00
2022-12-19T19:24:14.786Z,28.10
2022-12-19T19:26:41.632Z,27.05
2022-12-19T19:29:09.674Z,27.05
2022-12-19T19:31:40.897Z,26.63
2022-12-19T19:34:21.830Z,25.60
2022-12-19T19:36:54.714Z,25.75
2022-12-19T19:39:22.905Z,28.73
2022-12-19T19:41:49.854Z,25.10
2022-12-19T19:44:16.766Z,21.50
2022-12-19T19:46:43.725Z,23.17
2022-12-19T19:49:10.657Z,23.67
2022-12-19T19:51:37.541Z,23.85
2022-12-19T19:54:04.727Z,24.08
2022-12-19T19:56:32.341Z,21.40
2022-12-19T19:59:00.680Z,23.00
2022-12-19T20:01:27.848Z,21.73
2022-12-19T20:03:54.912Z,22.75
2022-12-19T20:06:21.970Z,22.77
2022-12-19T20:08:49.421Z,23.92
2022-12-19T20:11:16.729Z,24.20
2022-12-19T20:13:43.780Z,23.40
2022-12-19T20:16:15.654Z,24.52
2022-12-19T20:18:46.167Z,24.92
2022-12-19T20:21:14.045Z,22.13
2022-12-19T20:23:44.214Z,23.27
2022-12-19T20:26:12.973Z,23.63
2022-12-19T20:28:47.867Z,26.33
2022-12-19T20:31:17.597Z,22.92
2022-12-19T20:33:45.107Z,26.58
2022-12-19T20:36:12.871Z,23.88
2022-12-19T20:38:40.520Z,24.15
2022-12-19T20:41:07.683Z,24.50
2022-12-19T20:43:34.626Z,23.83
2022-12-19T20:46:03.539Z,22.63
2022-12-19T20:48:30.388Z,23.48
2022-12-19T20:51:01.773Z,24.65
2022-12-19T20:53:28.817Z,25.05
2022-12-19T20:55:58.856Z,26.27
2022-12-19T20:58:27.529Z,27.90
2022-12-19T21:01:07.197Z,24.38
2022-12-19T21:03:34.929Z,23.48
2022-12-19T21:06:02.213Z,20.17
2022-12-19T21:08:29.295Z,21.80
2022-12-19T21:10:56.442Z,21.65
2022-12-19T21:13:23.874Z,20.80
2022-12-19T21:15:55.094Z,20.42
2022-12-19T21:18:22.955Z,21.90
2022-12-19T21:20:53.247Z,20.23
2022-12-19T21:23:20.690Z,19.33
2022-12-19T21:25:47.531Z,17.88
2022-12-19T21:28:15.320Z,15.75
2022-12-19T21:30:42.568Z,14.52
2022-12-19T21:33:09.593Z,15.30
2022-12-19T21:35:38.120Z,13.68
2022-12-19T21:38:05.089Z,14.27
2022-12-19T21:40:32.011Z,13.32
2022-12-19T21:42:58.849Z,12.18
2022-12-19T21:45:25.729Z,11.10
2022-12-19T21:47:52.560Z,12.38
2022-12-19T21:50:19.527Z,10.98
2022-12-19T21:52:48.204Z,13.10
2022-12-19T21:55:18.311Z,12.00
2022-12-19T21:57:45.315Z,13.32
2022-12-19T22:00:13.279Z,11.57
2022-12-19T22:02:50.821Z,12.52
2022-12-19T22:05:27.148Z,11.95
2022-12-19T22:07:53.931Z,12.90
2022-12-19T22:10:20.897Z,12.98
2022-12-19T22:12:48.613Z,11.43
2022-12-19T22:15:15.459Z,10.02
2022-12-19T22:17:43.842Z,10.57
2022-12-19T22:20:11.061Z,10.40
2022-12-19T22:22:37.949Z,10.52
2022-12-19T22:25:05.124Z,11.32
2022-12-19T22:27:31.966Z,8.93
2022-12-19T22:30:00.253Z,9.32
2022-12-19T22:32:30.336Z,9.95
2022-12-19T22:34:57.148Z,9.93
2022-12-19T22:37:24.018Z,9.57
2022-12-19T22:39:50.876Z,8.40
2022-12-19T22:42:17.661Z,9.48
2022-12-19T22:44:44.472Z,9.70
2022-12-19T22:47:11.244Z,9.90
2022-12-19T22:49:38.118Z,9.40
2022-12-19T22:52:05.047Z,8.18
2022-12-19T22:54:31.869Z,8.82
2022-12-19T22:56:58.751Z,8.80
2022-12-19T22:59:25.573Z,8.88
2022-12-19T23:01:54.156Z,8.43
2022-12-19T23:04:21.244Z,8.57
2022-12-19T23:06:48.180Z,9.02
2022-12-19T23:09:16.957Z,9.20
2022-12-19T23:11:46.685Z,8.95
2022-12-19T23:14:16.792Z,9.73
2022-12-19T23:16:44.636Z,8.77
2022-12-19T23:19:12.264Z,9.95
2022-12-19T23:21:39.065Z,9.75
2022-12-19T23:24:06.476Z,9.63
2022-12-19T23:26:36.252Z,9.55
2022-12-19T23:29:11.642Z,11.00
2022-12-19T23:31:44.259Z,10.68
2022-12-19T23:34:12.138Z,11.77
2022-12-19T23:39:26.373Z,12.95
2022-12-19T23:41:53.176Z,13.77
2022-12-19T23:44:20.255Z,14.88
2022-12-19T23:46:47.138Z,13.48
2022-12-19T23:49:14.246Z,14.82
2022-12-19T23:51:41.425Z,15.23
2022-12-19T23:54:08.893Z,16.30
2022-12-19T23:56:36.306Z,19.45
2022-12-19T23:59:03.264Z,19.52
